Codroy, Canada
Current Conditions -  °F | °C
As of 8:00 PM on Wednesday 22 Oct 2014 (Local Time) from CWZB Reporting Station
Clear Clear  
Wind Chill: 38°   Ceiling: Unl
Heat Index: 42°   Visibility: 9mi
Dew Point: 35°   Wind: 6mph
Humidity: 77%   Direction: 60°ENE
Pressure: 30.45"   Gusts: NA
Location:  47.86°N, 59.36°W
Report Text: CWZB 222200Z AUTO 06005KT 9SM NSC 06/02 A3045 RMK SLP313 T00550018 WSI/SWOB
Loading
Personal Weather Stations






























Interactive Weather Map
Tropical Storm Tracking
New forecast layout! Learn more

10-Day Weather Forecast

Advertisements
Track Severe Weather on mobile